Ault, Kentucky
Current Conditions -  °F | °C
As of 12:10 AM on Saturday 22 Nov 2014 (Local Time) from KSYM Reporting Station
Clear Clear  
Wind Chill: -4°   Ceiling: Unl
Heat Index: -1°   Visibility: 10mi
Dew Point: -13°   Wind: 6mph
Humidity: 40%   Direction: 140°SE
Pressure: 30.42"   Gusts: NA
Location:  38.3543°N, 83.1837°W
Report Text: KSYM 220510Z AUTO 14005KT 10SM CLR M01/M13 A3042 RMK AO2
Loading
Personal Weather Stations






























Interactive Weather Map New forecast layout! Learn more

10-Day Weather Forecast

Advertisements
Track Severe Weather on mobile